createdAt,value
2018-09-04T00:02:09.290Z,14.90
2018-09-04T00:04:37.469Z,14.80
2018-09-04T00:07:05.714Z,14.70
2018-09-04T00:09:33.848Z,14.60
2018-09-04T00:12:02.050Z,14.50
2018-09-04T00:14:30.451Z,14.40
2018-09-04T00:17:05.340Z,14.70
2018-09-04T00:19:33.563Z,14.90
2018-09-04T00:22:01.787Z,14.70
2018-09-04T00:24:29.996Z,14.60
2018-09-04T00:26:58.218Z,14.40
2018-09-04T00:29:26.439Z,14.30
2018-09-04T00:31:54.658Z,14.30
2018-09-04T00:34:29.564Z,14.20
2018-09-04T00:36:57.739Z,14.20
2018-09-04T00:39:25.976Z,14.20
2018-09-04T00:41:54.183Z,14.30
2018-09-04T00:44:22.413Z,14.20
2018-09-04T00:46:50.612Z,14.20
2018-09-04T00:49:18.858Z,14.20
2018-09-04T00:51:47.058Z,14.30
2018-09-04T00:54:15.295Z,14.50
2018-09-04T00:56:43.563Z,14.60
2018-09-04T00:59:11.764Z,14.60
2018-09-04T01:01:39.982Z,14.50
2018-09-04T01:04:08.207Z,14.50
2018-09-04T01:06:36.407Z,14.40
2018-09-04T01:09:05.570Z,14.40
2018-09-04T01:11:33.778Z,14.30
2018-09-04T01:14:02.042Z,14.20
2018-09-04T01:16:30.256Z,14.20
2018-09-04T01:18:58.487Z,14.20
2018-09-04T01:21:26.694Z,14.30
2018-09-04T01:23:54.933Z,14.30
2018-09-04T01:26:23.154Z,14.20
2018-09-04T01:28:51.393Z,14.10
2018-09-04T01:31:19.601Z,14.10
2018-09-04T01:33:47.835Z,14.00
2018-09-04T01:36:16.055Z,14.10
2018-09-04T01:38:44.300Z,14.10
2018-09-04T01:41:12.501Z,14.00
2018-09-04T01:43:40.738Z,13.90
2018-09-04T01:46:08.959Z,13.90
2018-09-04T01:48:37.172Z,14.10
2018-09-04T01:51:05.398Z,14.00
2018-09-04T01:53:33.632Z,13.90
2018-09-04T01:56:01.842Z,13.90
2018-09-04T01:58:30.055Z,13.80
2018-09-04T02:00:58.275Z,13.90
2018-09-04T02:03:26.479Z,13.80
2018-09-04T02:05:54.700Z,13.70
2018-09-04T02:08:22.906Z,13.70
2018-09-04T02:10:51.114Z,13.70
2018-09-04T02:13:19.325Z,13.70
2018-09-04T02:15:47.648Z,13.60
2018-09-04T02:18:15.889Z,13.50
2018-09-04T02:20:44.119Z,13.40
2018-09-04T02:23:12.355Z,13.50
2018-09-04T02:25:40.575Z,13.50
2018-09-04T02:28:08.781Z,13.60
2018-09-04T02:30:37.078Z,13.50
2018-09-04T02:33:05.509Z,13.50
2018-09-04T02:35:33.744Z,13.40
2018-09-04T02:38:01.963Z,13.50
2018-09-04T02:40:30.178Z,13.50
2018-09-04T02:42:58.402Z,13.40
2018-09-04T02:45:26.613Z,13.40
2018-09-04T02:47:54.818Z,13.30
2018-09-04T02:50:23.047Z,13.40
2018-09-04T02:52:51.263Z,13.40
2018-09-04T02:55:19.487Z,13.40
2018-09-04T02:57:47.696Z,13.40
2018-09-04T03:00:15.913Z,13.40
2018-09-04T03:02:44.124Z,13.40
2018-09-04T03:05:12.334Z,13.40
2018-09-04T03:07:40.564Z,13.40
2018-09-04T03:10:09.091Z,13.20
2018-09-04T03:12:37.316Z,13.20
2018-09-04T03:15:05.557Z,13.20
2018-09-04T03:17:33.865Z,13.10
2018-09-04T03:20:02.126Z,13.00
2018-09-04T03:22:30.337Z,13.00
2018-09-04T03:24:58.622Z,13.00
2018-09-04T03:27:26.852Z,13.00
2018-09-04T03:29:55.083Z,12.90
2018-09-04T03:32:23.401Z,13.00
2018-09-04T03:34:51.645Z,13.00
2018-09-04T03:37:19.875Z,13.00
2018-09-04T03:39:48.073Z,12.90
2018-09-04T03:42:16.301Z,12.90
2018-09-04T03:44:44.513Z,12.90
2018-09-04T03:47:12.726Z,12.80
2018-09-04T03:49:40.939Z,12.90
2018-09-04T03:52:09.189Z,13.10
2018-09-04T03:54:37.363Z,13.00
2018-09-04T03:57:05.627Z,13.00
2018-09-04T03:59:33.835Z,13.10
2018-09-04T04:02:02.046Z,13.10
2018-09-04T04:04:30.263Z,13.10
2018-09-04T04:06:58.467Z,13.00
2018-09-04T04:09:26.678Z,13.00
2018-09-04T04:11:54.989Z,13.00
2018-09-04T04:14:23.122Z,12.90
2018-09-04T04:16:51.349Z,13.00
2018-09-04T04:19:19.553Z,13.10
2018-09-04T04:21:47.773Z,13.30
2018-09-04T04:24:15.987Z,13.40
2018-09-04T04:26:44.209Z,13.30
2018-09-04T04:29:12.415Z,13.40
2018-09-04T04:31:40.625Z,13.60
2018-09-04T04:34:08.834Z,13.50
2018-09-04T04:36:37.087Z,13.40
2018-09-04T04:39:07.414Z,13.20
2018-09-04T04:41:35.640Z,13.00
2018-09-04T04:44:03.854Z,12.90
2018-09-04T04:46:32.089Z,12.90
2018-09-04T04:49:00.295Z,13.00
2018-09-04T04:51:28.540Z,13.00
2018-09-04T04:53:56.750Z,13.00
2018-09-04T04:56:24.962Z,12.90
2018-09-04T04:58:53.206Z,13.00
2018-09-04T05:01:21.416Z,12.90
2018-09-04T05:03:49.631Z,13.00
2018-09-04T05:06:17.855Z,13.00
2018-09-04T05:08:46.077Z,13.10
2018-09-04T05:11:14.382Z,13.40
2018-09-04T05:13:42.518Z,13.70
2018-09-04T05:16:10.791Z,13.80
2018-09-04T05:18:38.999Z,13.50
2018-09-04T05:21:07.215Z,13.50
2018-09-04T05:23:35.436Z,13.50
2018-09-04T05:26:03.652Z,13.40
2018-09-04T05:28:31.871Z,13.40
2018-09-04T05:31:00.132Z,13.40
2018-09-04T05:33:31.675Z,13.40
2018-09-04T05:36:00.363Z,13.40
2018-09-04T05:38:28.569Z,13.40
2018-09-04T05:40:56.794Z,13.40
2018-09-04T05:43:58.585Z,13.30
2018-09-04T05:46:44.132Z,13.40
2018-09-04T05:49:13.458Z,13.50
2018-09-04T05:51:41.674Z,13.50
2018-09-04T05:54:09.887Z,13.60
2018-09-04T05:56:38.098Z,13.70
2018-09-04T05:59:06.316Z,13.70
2018-09-04T06:01:34.516Z,13.80
2018-09-04T06:04:02.731Z,13.90
2018-09-04T06:06:30.935Z,13.90
2018-09-04T06:08:59.155Z,14.00
2018-09-04T06:11:27.378Z,14.10
2018-09-04T06:13:55.606Z,14.10
2018-09-04T06:16:23.802Z,14.10
2018-09-04T06:18:52.023Z,14.10
2018-09-04T06:21:20.221Z,14.20
2018-09-04T06:23:48.442Z,14.30
2018-09-04T06:26:16.653Z,14.40
2018-09-04T06:28:51.377Z,14.40
2018-09-04T06:31:19.582Z,14.40
2018-09-04T06:33:47.806Z,14.60
2018-09-04T06:36:16.087Z,14.60
2018-09-04T06:38:44.593Z,14.70
2018-09-04T06:41:12.792Z,14.80
2018-09-04T06:43:40.999Z,14.90
2018-09-04T06:46:09.215Z,14.90
2018-09-04T06:48:37.518Z,15.00
2018-09-04T06:51:05.739Z,15.00
2018-09-04T06:53:33.950Z,15.20
2018-09-04T06:56:02.154Z,15.30
2018-09-04T06:58:30.371Z,15.30
2018-09-04T07:00:58.582Z,15.40
2018-09-04T07:03:26.796Z,15.50
2018-09-04T07:05:55.018Z,15.60
2018-09-04T07:08:23.216Z,15.70
2018-09-04T07:10:51.418Z,15.70
2018-09-04T07:13:19.640Z,15.80
2018-09-04T07:15:47.850Z,15.80
2018-09-04T07:18:16.059Z,15.80
2018-09-04T07:20:44.279Z,16.00
2018-09-04T07:23:12.487Z,16.10
2018-09-04T07:25:40.693Z,16.10
2018-09-04T07:28:08.904Z,16.20
2018-09-04T07:30:37.131Z,16.20
2018-09-04T07:33:05.317Z,16.30
2018-09-04T07:35:33.555Z,16.40
2018-09-04T07:38:01.758Z,16.50
2018-09-04T07:40:29.977Z,16.60
2018-09-04T07:42:58.188Z,16.80
2018-09-04T07:45:26.404Z,17.10
2018-09-04T07:47:54.614Z,17.60
2018-09-04T07:50:22.830Z,18.40
2018-09-04T07:52:51.121Z,19.20
2018-09-04T07:55:19.344Z,19.90
2018-09-04T07:57:47.546Z,20.50
2018-09-04T08:00:15.771Z,21.00
2018-09-04T08:02:43.971Z,21.50
2018-09-04T08:05:12.198Z,21.90
2018-09-04T08:07:40.447Z,22.10
2018-09-04T08:10:08.772Z,22.40
2018-09-04T08:12:36.923Z,22.70
2018-09-04T08:15:05.167Z,22.80
2018-09-04T08:17:33.375Z,22.90
2018-09-04T08:20:01.588Z,23.00
2018-09-04T08:22:29.831Z,23.20
2018-09-04T08:24:58.046Z,23.30
2018-09-04T08:27:26.264Z,23.40
2018-09-04T08:29:54.462Z,23.50
2018-09-04T08:32:22.703Z,23.50
2018-09-04T08:34:50.915Z,23.50
2018-09-04T08:37:19.153Z,23.60
2018-09-04T08:39:47.367Z,23.60
2018-09-04T08:42:15.603Z,23.60
2018-09-04T08:44:43.825Z,23.60
2018-09-04T08:47:12.066Z,23.70
2018-09-04T08:49:40.251Z,23.70
2018-09-04T08:52:08.479Z,23.90
2018-09-04T08:54:36.687Z,24.00
2018-09-04T08:57:04.939Z,24.00
2018-09-04T08:59:33.150Z,24.10
2018-09-04T09:02:01.383Z,24.30
2018-09-04T09:04:29.591Z,24.40
2018-09-04T09:06:57.828Z,24.50
2018-09-04T09:09:26.043Z,24.70
2018-09-04T09:11:54.262Z,24.80
2018-09-04T09:14:22.479Z,25.00
2018-09-04T09:16:50.763Z,25.10
2018-09-04T09:19:18.950Z,25.40
2018-09-04T09:21:47.176Z,25.50
2018-09-04T09:24:15.484Z,25.50
2018-09-04T09:26:43.735Z,25.70
2018-09-04T09:29:12.042Z,25.90
2018-09-04T09:31:40.262Z,25.90
2018-09-04T09:34:08.467Z,25.90
2018-09-04T09:36:36.788Z,26.00
2018-09-04T09:39:07.164Z,26.10
2018-09-04T09:41:35.394Z,26.20
2018-09-04T09:44:03.590Z,26.50
2018-09-04T09:46:31.803Z,26.60
2018-09-04T09:49:00.846Z,26.60
2018-09-04T09:51:29.066Z,26.60
2018-09-04T09:53:57.285Z,26.70
2018-09-04T09:56:25.570Z,26.80
2018-09-04T09:58:53.686Z,27.00
2018-09-04T10:01:27.159Z,27.20
2018-09-04T10:03:59.707Z,27.30
2018-09-04T10:06:28.160Z,27.30
2018-09-04T10:08:56.387Z,27.30
2018-09-04T10:11:24.636Z,27.30
2018-09-04T10:13:52.862Z,27.00
2018-09-04T10:16:21.061Z,26.40
2018-09-04T10:18:49.295Z,26.00
2018-09-04T10:21:17.509Z,25.50
2018-09-04T10:23:45.720Z,25.30
2018-09-04T10:26:13.936Z,25.20
2018-09-04T10:28:42.162Z,25.70
2018-09-04T10:31:10.392Z,26.10
2018-09-04T10:33:38.606Z,26.10
2018-09-04T10:36:06.850Z,25.80
2018-09-04T10:38:35.074Z,25.60
2018-09-04T10:41:04.342Z,25.40
2018-09-04T10:43:33.056Z,25.20
2018-09-04T10:46:13.351Z,25.00
2018-09-04T10:48:41.562Z,24.80
2018-09-04T10:51:09.839Z,24.60
2018-09-04T10:53:38.054Z,24.40
2018-09-04T10:56:06.336Z,24.20
2018-09-04T10:58:34.536Z,24.40
2018-09-04T11:01:02.744Z,25.10
2018-09-04T11:03:30.968Z,25.90
2018-09-04T11:05:59.199Z,26.50
2018-09-04T11:08:27.406Z,26.50
2018-09-04T11:10:55.608Z,26.60
2018-09-04T11:13:23.828Z,26.90
2018-09-04T11:15:52.052Z,27.00
2018-09-04T11:18:20.267Z,26.90
2018-09-04T11:20:48.464Z,26.70
2018-09-04T11:23:16.678Z,26.40
2018-09-04T11:25:44.919Z,26.20
2018-09-04T11:28:13.145Z,26.00
2018-09-04T11:30:41.357Z,25.90
2018-09-04T11:33:09.566Z,25.60
2018-09-04T11:35:37.835Z,25.40
2018-09-04T11:38:06.100Z,25.30
2018-09-04T11:40:34.383Z,25.20
2018-09-04T11:43:02.611Z,25.10
2018-09-04T11:45:30.847Z,25.10
2018-09-04T11:47:59.783Z,25.00
2018-09-04T11:50:28.106Z,24.70
2018-09-04T11:52:56.375Z,24.70
2018-09-04T11:55:24.783Z,24.60
2018-09-04T11:57:52.990Z,24.60
2018-09-04T12:00:53.033Z,24.70
2018-09-04T12:03:21.263Z,24.90
2018-09-04T12:05:49.500Z,25.40
2018-09-04T12:08:17.838Z,25.60
2018-09-04T12:10:46.055Z,25.60
2018-09-04T12:13:18.502Z,25.70
2018-09-04T12:15:46.720Z,25.80
2018-09-04T12:18:14.934Z,25.90
2018-09-04T12:20:45.677Z,26.00
2018-09-04T12:23:13.808Z,26.00
2018-09-04T12:25:42.651Z,26.10
2018-09-04T12:28:10.879Z,26.20
2018-09-04T12:30:39.078Z,26.20
2018-09-04T12:33:07.306Z,26.40
2018-09-04T12:35:35.767Z,26.40
2018-09-04T12:38:07.456Z,26.10
2018-09-04T12:40:35.668Z,25.90
2018-09-04T12:43:04.180Z,25.80
2018-09-04T12:45:37.903Z,25.70
2018-09-04T12:50:40.776Z,25.60
2018-09-04T12:53:09.453Z,25.60
2018-09-04T12:55:37.672Z,25.40
2018-09-04T12:58:05.866Z,25.40
2018-09-04T13:00:34.172Z,25.30
2018-09-04T13:03:02.464Z,25.20
2018-09-04T13:05:30.683Z,25.20
2018-09-04T13:07:58.951Z,25.10
2018-09-04T13:10:27.231Z,24.90
2018-09-04T13:12:55.519Z,24.80
2018-09-04T13:15:23.811Z,24.70
2018-09-04T13:17:52.015Z,24.60
2018-09-04T13:20:20.225Z,24.50
2018-09-04T13:22:48.464Z,24.40
2018-09-04T13:25:16.743Z,24.30
2018-09-04T13:27:44.955Z,24.30
2018-09-04T13:30:13.219Z,24.30
2018-09-04T13:32:41.471Z,24.30
2018-09-04T13:35:09.718Z,24.40
2018-09-04T13:37:37.927Z,24.40
2018-09-04T13:40:06.212Z,24.40
2018-09-04T13:42:34.423Z,24.40
2018-09-04T13:45:02.739Z,24.40
2018-09-04T13:47:32.395Z,24.30
2018-09-04T13:50:00.647Z,24.30
2018-09-04T13:52:29.934Z,24.30
2018-09-04T13:54:58.430Z,24.30
2018-09-04T13:57:27.316Z,24.30
2018-09-04T13:59:55.610Z,24.30
2018-09-04T14:02:23.825Z,24.30
2018-09-04T14:04:52.056Z,24.30
2018-09-04T14:07:20.331Z,24.30
2018-09-04T14:09:48.602Z,24.30
2018-09-04T14:12:16.818Z,24.30
2018-09-04T14:14:45.042Z,24.20
2018-09-04T14:17:16.595Z,24.20
2018-09-04T14:19:44.991Z,24.20
2018-09-04T14:22:13.363Z,24.20
2018-09-04T14:24:41.603Z,24.20
2018-09-04T14:27:09.914Z,24.20
2018-09-04T14:29:53.968Z,24.20
2018-09-04T14:32:06.421Z,24.10
2018-09-04T14:34:34.643Z,24.10
2018-09-04T14:37:03.042Z,24.10
2018-09-04T14:39:31.088Z,24.10
2018-09-04T14:41:59.344Z,24.00
2018-09-04T14:44:27.587Z,24.00
2018-09-04T14:46:55.795Z,24.00
2018-09-04T14:49:24.003Z,24.00
2018-09-04T14:51:52.215Z,24.00
2018-09-04T14:54:20.421Z,24.00
2018-09-04T14:56:48.646Z,24.00
2018-09-04T14:59:16.841Z,24.00
2018-09-04T15:01:45.059Z,24.00
2018-09-04T15:04:13.261Z,23.90
2018-09-04T15:06:41.484Z,23.90
2018-09-04T15:09:09.669Z,23.80
2018-09-04T15:11:37.920Z,23.70
2018-09-04T15:14:06.125Z,23.60
2018-09-04T15:16:34.338Z,23.50
2018-09-04T15:19:02.605Z,23.40
2018-09-04T15:21:30.779Z,23.30
2018-09-04T15:23:59.009Z,23.20
2018-09-04T15:26:27.220Z,23.10
2018-09-04T15:28:55.455Z,23.10
2018-09-04T15:31:23.703Z,23.00
2018-09-04T15:33:51.928Z,22.90
2018-09-04T15:36:20.243Z,22.90
2018-09-04T15:38:48.441Z,22.90
2018-09-04T15:41:16.651Z,23.00
2018-09-04T15:43:44.868Z,23.00
2018-09-04T15:46:13.072Z,23.00
2018-09-04T15:48:41.317Z,23.10
2018-09-04T15:51:09.516Z,23.10
2018-09-04T15:53:38.095Z,23.10
2018-09-04T15:56:06.365Z,23.10
2018-09-04T15:58:34.580Z,23.10
2018-09-04T16:01:02.773Z,23.20
2018-09-04T16:03:31.002Z,23.20
2018-09-04T16:05:59.206Z,23.20
2018-09-04T16:08:27.423Z,23.20
2018-09-04T16:10:55.639Z,23.20
2018-09-04T16:13:23.847Z,23.20
2018-09-04T16:15:52.051Z,23.10
2018-09-04T16:18:20.277Z,23.10
2018-09-04T16:20:48.501Z,23.10
2018-09-04T16:23:16.735Z,23.10
2018-09-04T16:25:44.930Z,23.10
2018-09-04T16:28:13.152Z,23.10
2018-09-04T16:30:41.370Z,23.00
2018-09-04T16:33:09.604Z,23.00
2018-09-04T16:35:37.888Z,22.90
2018-09-04T16:38:06.088Z,22.90
2018-09-04T16:40:34.354Z,22.80
2018-09-04T16:43:02.616Z,22.70
2018-09-04T16:45:30.851Z,22.60
2018-09-04T16:47:59.441Z,22.50
2018-09-04T16:50:27.688Z,22.50
2018-09-04T16:52:55.916Z,22.50
2018-09-04T16:55:24.124Z,22.40
2018-09-04T16:57:52.335Z,22.30
2018-09-04T17:00:20.616Z,22.30
2018-09-04T17:02:48.829Z,22.20
2018-09-04T17:05:17.036Z,22.20
2018-09-04T17:07:45.657Z,22.10
2018-09-04T17:10:13.886Z,22.10
2018-09-04T17:12:42.110Z,22.20
2018-09-04T17:15:10.335Z,22.20
2018-09-04T17:17:38.554Z,22.20
2018-09-04T17:20:07.246Z,22.20
2018-09-04T17:22:35.504Z,22.30
2018-09-04T17:25:03.854Z,22.20
2018-09-04T17:27:32.108Z,22.10
2018-09-04T17:30:00.359Z,21.90
2018-09-04T17:32:28.575Z,21.90
2018-09-04T17:34:56.801Z,21.80
2018-09-04T17:37:25.025Z,21.70
2018-09-04T17:39:53.302Z,21.60
2018-09-04T17:42:21.524Z,21.50
2018-09-04T17:44:49.807Z,21.50
2018-09-04T17:47:18.045Z,21.50
2018-09-04T17:49:46.271Z,21.40
2018-09-04T17:52:14.474Z,21.40
2018-09-04T17:54:42.720Z,21.30
2018-09-04T17:57:10.973Z,21.30
2018-09-04T17:59:39.213Z,21.20
2018-09-04T18:02:07.429Z,21.20
2018-09-04T18:04:35.640Z,21.20
2018-09-04T18:07:03.889Z,21.00
2018-09-04T18:09:32.116Z,20.90
2018-09-04T18:12:00.349Z,20.80
2018-09-04T18:14:28.561Z,20.70
2018-09-04T18:16:56.794Z,20.60
2018-09-04T18:19:25.013Z,20.60
2018-09-04T18:21:53.263Z,20.50
2018-09-04T18:24:21.453Z,20.50
2018-09-04T18:26:49.671Z,20.40
2018-09-04T18:29:17.875Z,20.40
2018-09-04T18:31:46.089Z,20.20
2018-09-04T18:34:14.298Z,20.10
2018-09-04T18:36:42.532Z,20.10
2018-09-04T18:39:10.729Z,20.00
2018-09-04T18:41:38.939Z,19.90
2018-09-04T18:44:07.157Z,19.90
2018-09-04T18:46:35.365Z,19.80
2018-09-04T18:49:03.609Z,19.80
2018-09-04T18:51:31.794Z,19.70
2018-09-04T18:53:59.993Z,19.70
2018-09-04T18:56:28.250Z,19.60
2018-09-04T18:58:56.450Z,19.60
2018-09-04T19:01:24.676Z,19.60
2018-09-04T19:03:52.867Z,19.50
2018-09-04T19:06:21.091Z,19.50
2018-09-04T19:08:49.302Z,19.40
2018-09-04T19:11:17.534Z,19.40
2018-09-04T19:13:45.734Z,19.40
2018-09-04T19:16:13.938Z,19.40
2018-09-04T19:18:42.155Z,19.30
2018-09-04T19:21:10.375Z,19.30
2018-09-04T19:23:38.589Z,19.30
2018-09-04T19:26:06.790Z,19.20
2018-09-04T19:28:35.024Z,19.30
2018-09-04T19:31:03.239Z,19.40
2018-09-04T19:33:31.465Z,19.30
2018-09-04T19:35:59.678Z,19.30
2018-09-04T19:38:27.912Z,19.20
2018-09-04T19:40:56.112Z,19.20
2018-09-04T19:43:24.331Z,19.20
2018-09-04T19:45:52.535Z,19.10
2018-09-04T19:48:20.752Z,19.00
2018-09-04T19:50:48.957Z,19.00
2018-09-04T19:53:17.177Z,19.00
2018-09-04T19:55:45.458Z,19.00
2018-09-04T19:58:13.701Z,18.90
2018-09-04T20:00:42.004Z,18.90
2018-09-04T20:03:10.179Z,18.90
2018-09-04T20:05:38.387Z,18.80
2018-09-04T20:08:06.651Z,18.80
2018-09-04T20:10:34.859Z,18.80
2018-09-04T20:13:03.190Z,18.70
2018-09-04T20:15:31.336Z,18.60
2018-09-04T20:17:59.638Z,18.50
2018-09-04T20:20:27.844Z,18.50
2018-09-04T20:22:56.056Z,18.40
2018-09-04T20:25:24.254Z,18.30
2018-09-04T20:27:52.477Z,18.40
2018-09-04T20:30:20.679Z,18.50
2018-09-04T20:32:49.140Z,18.40
2018-09-04T20:35:17.443Z,18.40
2018-09-04T20:37:45.662Z,18.40
2018-09-04T20:40:13.898Z,18.40
2018-09-04T20:42:42.113Z,18.40
2018-09-04T20:45:10.403Z,18.40
2018-09-04T20:47:38.636Z,18.40
2018-09-04T20:50:06.973Z,18.30
2018-09-04T20:52:35.217Z,18.20
2018-09-04T20:55:03.631Z,18.20
2018-09-04T20:57:32.003Z,18.10
2018-09-04T21:00:13.032Z,18.00
2018-09-04T21:02:52.766Z,18.00
2018-09-04T21:05:32.516Z,18.00
2018-09-04T21:08:11.049Z,18.00
2018-09-04T21:10:39.584Z,17.80
2018-09-04T21:13:15.048Z,17.70
2018-09-04T21:15:43.285Z,17.80
2018-09-04T21:18:11.495Z,17.70
2018-09-04T21:20:39.851Z,17.60
2018-09-04T21:23:08.317Z,17.60
2018-09-04T21:25:36.638Z,17.70
2018-09-04T21:28:04.908Z,17.60
2018-09-04T21:30:33.131Z,17.60
2018-09-04T21:33:01.337Z,17.60
2018-09-04T21:35:29.583Z,17.70
2018-09-04T21:37:57.822Z,17.60
2018-09-04T21:40:26.060Z,17.60
2018-09-04T21:42:54.267Z,17.40
2018-09-04T21:45:22.490Z,17.30
2018-09-04T21:47:50.736Z,17.40
2018-09-04T21:50:18.946Z,17.50
2018-09-04T21:52:47.166Z,17.30
2018-09-04T21:55:15.439Z,17.30
2018-09-04T21:57:43.642Z,17.20
2018-09-04T22:00:11.876Z,17.40
2018-09-04T22:02:40.085Z,17.10
2018-09-04T22:05:08.324Z,17.00
2018-09-04T22:07:36.519Z,17.00
2018-09-04T22:10:04.762Z,17.00
2018-09-04T22:12:32.975Z,17.00
2018-09-04T22:15:01.216Z,17.00
2018-09-04T22:17:29.427Z,17.10
2018-09-04T22:19:57.643Z,17.00
2018-09-04T22:22:25.856Z,16.90
2018-09-04T22:24:54.080Z,16.80
2018-09-04T22:27:22.297Z,16.80
2018-09-04T22:29:50.520Z,16.80
2018-09-04T22:32:18.739Z,16.90
2018-09-04T22:34:46.987Z,16.90
2018-09-04T22:37:15.221Z,16.90
2018-09-04T22:39:43.443Z,17.00
2018-09-04T22:42:11.695Z,17.10
2018-09-04T22:44:39.919Z,17.00
2018-09-04T22:47:08.176Z,17.00
2018-09-04T22:49:36.456Z,16.90
2018-09-04T22:52:04.698Z,16.70
2018-09-04T22:54:32.915Z,16.70
2018-09-04T22:57:01.148Z,16.70
2018-09-04T22:59:29.342Z,16.90
2018-09-04T23:01:57.565Z,16.80
2018-09-04T23:04:25.765Z,16.80
2018-09-04T23:06:54.007Z,16.90
2018-09-04T23:09:22.206Z,16.80
2018-09-04T23:11:50.446Z,16.60
2018-09-04T23:14:18.669Z,16.50
2018-09-04T23:16:46.892Z,16.40
2018-09-04T23:19:15.090Z,16.40
2018-09-04T23:21:43.310Z,16.30
2018-09-04T23:24:11.517Z,16.30
2018-09-04T23:26:39.747Z,16.30
2018-09-04T23:29:07.965Z,16.30
2018-09-04T23:31:36.186Z,16.30
2018-09-04T23:34:04.391Z,16.30
2018-09-04T23:36:32.624Z,16.40
2018-09-04T23:39:00.839Z,16.30
2018-09-04T23:41:29.067Z,16.30
2018-09-04T23:43:57.301Z,16.40
2018-09-04T23:46:25.512Z,16.40
2018-09-04T23:48:53.716Z,16.20
2018-09-04T23:51:21.947Z,16.20
2018-09-04T23:53:50.147Z,16.20
2018-09-04T23:56:18.359Z,16.20
2018-09-04T23:58:46.618Z,16.10
